Terminal Aerodrome Forecast
Issued by NWS Cleveland, OH

Home | Current Version | Previous Version | Graphics & Text | Print | Product List | Glossary Off
Versions: 1 2 3 4 5 6 7 8 9 10 11 12 13 14 15 16 17 18 19 20 21 22 23 24 25 26 27 28

000
FTUS41 KCLE 020200 AAB
TAFCLE
TAF AMD
KCLE 020255Z 0203/0306 VRB03KT P6SM SCT025
      TEMPO 0203/0207 2SM BR BKN025
     FM020700 16005KT 5SM BR SCT150
     FM021400 17008KT P6SM SCT100 BKN200
     FM022300 14006KT P6SM FEW050 BKN150=

USA.gov is the U.S. government's official web portal to all federal, state and local government web resources and services.